Guntersville, AL (35976)

12:00 PM CDT on October 30, 2014 (GMT -0500)
KJ4UXN - Warrenton Shores | Change Station
CLOSE
Current Station
Personal Weather Station
Location: Guntersville, AL
Elevation: 633 ft
Nearby Weather Stations

Elev 633 ft 34.36 °N, 86.35 °W | Updated 3 seconds ago

Clear
Clear
58.5 °F
Feels Like 58.5 °F
N
3.0
Wind Variable Wind from SE
Gusts 5.0 mph

Today
High -- | Low -- °F
--% Chance of Precip.
Yesterday
High -- | Low -- °F
Precip. -- in
7:03 AM 5:53 PM
Waxing Crescent, 45% visible
Pressure 30.12 in
Visibility 10.0 miles
Clouds Clear
Dew Point 41 °F
Humidity 64%
Rainfall 0.00 in
Snow Depth Not available.
UV 5 out of 12
Pollen 1.30 out of 12
Air Quality Not available.
Flu Activity Not available.
METAR K8A0 301635Z AUTO 03007KT 10SM CLR 15/07 A3012 RMK AO2

More Conditions Fewer Conditions

Pressure 30.12 in
Visibility 10.0 miles
Clouds Clear
Dew Point 41 °F
Humidity 64%
Rainfall 0.00 in
Snow Depth Not available.
UV 5 out of 12
Pollen 1.30 out of 12
Air Quality Not available.
Flu Activity Not available.
METAR K8A0 301635Z AUTO 03007KT 10SM CLR 15/07 A3012 RMK AO2

More Conditions Fewer Conditions

10-Day Weather Forecast

Almanac

Astronomy

Oct. 30, 2014 Rise Set
Actual Time
Civil Twilight
Nautical Twilight
Astronomical Twilight
Moon
Length of Visible Light
Length of Day
Tomorrow will be .
, % of the Moon is Illuminated

Today's Extremes

State Highs State Lows

Community

WunderPhotos

Upload Photos

1,766,403 photos uploaded!

WunderBlogs® & News

Nearby

Air Quality

  Air Quality AQ Index Pollutant
Not available.

Snow Depth

Station Depth Elevation

Earthquake Activity

City Distance Mag. Time & Date
Minimum magnitude displayed is 2.5.

Coastal Water Temperatures

Place Temperature

Nearby Weather Stations